createdAt,value
2019-03-17T00:01:57.999Z,6.80
2019-03-17T00:04:31.499Z,6.80
2019-03-17T00:06:53.767Z,6.70
2019-03-17T00:09:20.557Z,6.70
2019-03-17T00:11:47.481Z,6.80
2019-03-17T00:14:14.525Z,6.70
2019-03-17T00:16:41.445Z,6.70
2019-03-17T00:19:08.363Z,6.70
2019-03-17T00:21:35.313Z,6.70
2019-03-17T00:24:02.345Z,6.80
2019-03-17T00:26:29.256Z,6.80
2019-03-17T00:28:56.143Z,6.80
2019-03-17T00:31:24.398Z,6.80
2019-03-17T00:33:51.562Z,6.80
2019-03-17T00:36:18.400Z,6.80
2019-03-17T00:38:45.204Z,6.80
2019-03-17T00:41:12.006Z,6.80
2019-03-17T00:43:38.925Z,6.80
2019-03-17T00:46:05.928Z,6.90
2019-03-17T00:48:32.754Z,6.90
2019-03-17T00:50:59.606Z,6.90
2019-03-17T00:53:26.405Z,6.90
2019-03-17T00:55:53.223Z,6.90
2019-03-17T00:58:20.069Z,6.90
2019-03-17T01:00:47.078Z,6.90
2019-03-17T01:03:13.990Z,6.90
2019-03-17T01:05:40.829Z,6.90
2019-03-17T01:08:07.873Z,6.90
2019-03-17T01:10:34.799Z,6.90
2019-03-17T01:13:02.347Z,6.90
2019-03-17T01:15:29.147Z,6.90
2019-03-17T01:17:56.054Z,6.90
2019-03-17T01:20:22.914Z,6.90
2019-03-17T01:22:49.713Z,6.80
2019-03-17T01:25:16.637Z,6.80
2019-03-17T01:27:43.476Z,6.80
2019-03-17T01:30:11.299Z,6.80
2019-03-17T01:32:38.497Z,6.80
2019-03-17T01:35:09.625Z,6.80
2019-03-17T01:37:34.346Z,6.80
2019-03-17T01:40:01.186Z,6.90
2019-03-17T01:42:28.216Z,6.90
2019-03-17T01:44:55.122Z,6.90
2019-03-17T01:47:22.131Z,6.80
2019-03-17T01:49:48.984Z,6.80
2019-03-17T01:52:15.786Z,6.90
2019-03-17T01:54:42.614Z,6.90
2019-03-17T01:57:09.546Z,6.90
2019-03-17T01:59:36.345Z,6.90
2019-03-17T02:02:03.261Z,6.90
2019-03-17T02:04:30.205Z,6.90
2019-03-17T02:06:57.028Z,6.90
2019-03-17T02:09:23.857Z,6.90
2019-03-17T02:11:50.695Z,6.90
2019-03-17T02:14:17.459Z,6.90
2019-03-17T02:16:44.472Z,6.90
2019-03-17T02:19:11.306Z,6.90
2019-03-17T02:21:38.222Z,6.90
2019-03-17T02:24:05.142Z,6.90
2019-03-17T02:26:31.966Z,6.90
2019-03-17T02:28:58.766Z,6.90
2019-03-17T02:31:25.763Z,6.90
2019-03-17T02:33:52.723Z,6.80
2019-03-17T02:36:19.542Z,6.80
2019-03-17T02:38:46.346Z,6.80
2019-03-17T02:41:13.190Z,6.70
2019-03-17T02:43:40.004Z,6.70
2019-03-17T02:46:06.916Z,6.70
2019-03-17T02:48:33.847Z,6.70
2019-03-17T02:51:00.760Z,6.70
2019-03-17T02:53:27.577Z,6.60
2019-03-17T02:55:54.536Z,6.60
2019-03-17T02:58:21.339Z,6.60
2019-03-17T03:00:48.150Z,6.60
2019-03-17T03:03:15.093Z,6.60
2019-03-17T03:05:53.959Z,6.60
2019-03-17T03:08:10.751Z,6.60
2019-03-17T03:10:37.697Z,6.60
2019-03-17T03:13:04.738Z,6.60
2019-03-17T03:15:31.660Z,6.60
2019-03-17T03:17:58.682Z,6.50
2019-03-17T03:20:25.513Z,6.50
2019-03-17T03:22:52.299Z,6.60
2019-03-17T03:25:19.152Z,6.60
2019-03-17T03:27:46.344Z,6.60
2019-03-17T03:30:13.448Z,6.60
2019-03-17T03:32:40.478Z,6.60
2019-03-17T03:35:07.508Z,6.60
2019-03-17T03:37:34.521Z,6.60
2019-03-17T03:40:01.679Z,6.70
2019-03-17T03:42:28.989Z,6.70
2019-03-17T03:44:55.799Z,6.70
2019-03-17T03:47:22.731Z,6.70
2019-03-17T03:49:49.554Z,6.80
2019-03-17T03:52:16.467Z,6.80
2019-03-17T03:54:43.439Z,6.90
2019-03-17T03:57:10.321Z,6.90
2019-03-17T03:59:37.209Z,6.90
2019-03-17T04:02:04.286Z,6.90
2019-03-17T04:04:31.196Z,6.90
2019-03-17T04:06:58.079Z,7.00
2019-03-17T04:09:25.023Z,7.00
2019-03-17T04:11:51.938Z,7.00
2019-03-17T04:14:18.732Z,7.00
2019-03-17T04:16:45.589Z,7.00
2019-03-17T04:19:12.412Z,7.10
2019-03-17T04:21:39.308Z,7.00
2019-03-17T04:24:06.340Z,7.10
2019-03-17T04:26:33.223Z,7.10
2019-03-17T04:29:00.047Z,7.10
2019-03-17T04:31:26.907Z,7.10
2019-03-17T04:33:53.716Z,7.10
2019-03-17T04:36:20.617Z,7.10
2019-03-17T04:38:47.445Z,7.10
2019-03-17T04:41:14.253Z,7.10
2019-03-17T04:43:41.050Z,7.10
2019-03-17T04:46:07.960Z,7.10
2019-03-17T04:48:34.916Z,7.10
2019-03-17T04:51:01.942Z,7.10
2019-03-17T04:53:28.823Z,7.10
2019-03-17T04:55:55.659Z,7.20
2019-03-17T04:58:22.503Z,7.20
2019-03-17T05:00:49.554Z,7.20
2019-03-17T05:03:16.393Z,7.20
2019-03-17T05:05:43.221Z,7.20
2019-03-17T05:08:10.098Z,7.20
2019-03-17T05:10:36.930Z,7.30
2019-03-17T05:13:03.761Z,7.20
2019-03-17T05:15:30.706Z,7.20
2019-03-17T05:17:57.539Z,7.30
2019-03-17T05:20:24.365Z,7.30
2019-03-17T05:22:51.310Z,7.30
2019-03-17T05:25:18.133Z,7.30
2019-03-17T05:27:44.967Z,7.20
2019-03-17T05:30:12.046Z,7.20
2019-03-17T05:32:39.008Z,7.20
2019-03-17T05:35:06.519Z,7.20
2019-03-17T05:37:33.378Z,7.10
2019-03-17T05:40:00.470Z,7.10
2019-03-17T05:42:27.288Z,7.10
2019-03-17T05:44:54.157Z,7.10
2019-03-17T05:47:21.077Z,7.00
2019-03-17T05:49:47.916Z,7.10
2019-03-17T05:52:14.767Z,7.10
2019-03-17T05:54:41.601Z,7.10
2019-03-17T05:57:08.516Z,7.10
2019-03-17T05:59:35.377Z,7.20
2019-03-17T06:02:02.306Z,7.20
2019-03-17T06:04:29.126Z,7.20
2019-03-17T06:06:55.994Z,7.20
2019-03-17T06:09:22.826Z,7.30
2019-03-17T06:11:50.586Z,7.30
2019-03-17T06:14:17.425Z,7.30
2019-03-17T06:16:44.342Z,7.30
2019-03-17T06:19:11.166Z,7.30
2019-03-17T06:21:38.131Z,7.30
2019-03-17T06:24:05.230Z,7.40
2019-03-17T06:26:32.090Z,7.40
2019-03-17T06:28:58.913Z,7.40
2019-03-17T06:31:25.722Z,7.40
2019-03-17T06:33:52.627Z,7.40
2019-03-17T06:36:19.498Z,7.50
2019-03-17T06:38:46.454Z,7.50
2019-03-17T06:41:13.265Z,7.50
2019-03-17T06:43:41.708Z,7.40
2019-03-17T06:46:08.555Z,7.40
2019-03-17T06:48:35.420Z,7.40
2019-03-17T06:51:02.293Z,7.40
2019-03-17T06:53:29.112Z,7.40
2019-03-17T06:56:15.607Z,7.40
2019-03-17T06:58:42.463Z,7.50
2019-03-17T07:01:09.412Z,7.50
2019-03-17T07:03:36.292Z,7.50
2019-03-17T07:06:03.315Z,7.50
2019-03-17T07:08:30.117Z,7.50
2019-03-17T07:10:57.080Z,7.50
2019-03-17T07:13:24.055Z,7.50
2019-03-17T07:15:50.874Z,7.50
2019-03-17T07:18:17.857Z,7.60
2019-03-17T07:20:44.830Z,7.60
2019-03-17T07:23:11.849Z,7.60
2019-03-17T07:25:38.864Z,7.70
2019-03-17T07:28:05.719Z,7.70
2019-03-17T07:30:32.738Z,7.70
2019-03-17T07:32:59.742Z,7.70
2019-03-17T07:35:26.553Z,7.70
2019-03-17T07:37:56.950Z,7.70
2019-03-17T07:40:22.181Z,7.70
2019-03-17T07:42:49.081Z,7.80
2019-03-17T07:45:16.022Z,7.70
2019-03-17T07:47:43.016Z,7.70
2019-03-17T07:50:10.052Z,7.70
2019-03-17T07:52:36.895Z,7.70
2019-03-17T07:55:06.285Z,7.60
2019-03-17T07:57:33.113Z,7.60
2019-03-17T07:59:59.930Z,7.70
2019-03-17T08:02:26.823Z,7.70
2019-03-17T08:04:53.662Z,7.70
2019-03-17T08:07:20.570Z,7.70
2019-03-17T08:09:47.544Z,7.70
2019-03-17T08:12:14.573Z,7.60
2019-03-17T08:14:41.477Z,7.60
2019-03-17T08:17:08.424Z,7.50
2019-03-17T08:19:35.258Z,7.50
2019-03-17T08:22:02.230Z,7.50
2019-03-17T08:24:29.270Z,7.40
2019-03-17T08:26:56.107Z,7.40
2019-03-17T08:29:23.142Z,7.20
2019-03-17T08:31:49.998Z,7.10
2019-03-17T08:34:16.827Z,6.90
2019-03-17T08:36:43.749Z,6.80
2019-03-17T08:39:10.717Z,6.80
2019-03-17T08:41:37.870Z,6.70
2019-03-17T08:44:04.941Z,6.60
2019-03-17T08:46:31.890Z,6.50
2019-03-17T08:48:58.968Z,6.50
2019-03-17T08:51:25.998Z,6.40
2019-03-17T08:53:53.127Z,6.40
2019-03-17T08:56:20.238Z,6.40
2019-03-17T08:58:47.059Z,6.40
2019-03-17T09:01:14.147Z,6.50
2019-03-17T09:03:41.481Z,6.60
2019-03-17T09:06:08.440Z,6.70
2019-03-17T09:08:35.703Z,6.70
2019-03-17T09:11:02.696Z,6.70
2019-03-17T09:13:29.506Z,6.70
2019-03-17T09:15:56.671Z,6.70
2019-03-17T09:18:23.501Z,6.70
2019-03-17T09:20:50.445Z,6.60
2019-03-17T09:23:17.271Z,6.70
2019-03-17T09:25:44.138Z,6.80
2019-03-17T09:28:10.953Z,6.90
2019-03-17T09:30:37.835Z,7.10
2019-03-17T09:33:04.729Z,7.10
2019-03-17T09:35:31.674Z,7.10
2019-03-17T09:37:58.664Z,7.10
2019-03-17T09:40:25.584Z,7.20
2019-03-17T09:42:52.397Z,7.20
2019-03-17T09:45:19.239Z,7.20
2019-03-17T09:47:46.187Z,7.10
2019-03-17T09:50:13.229Z,7.20
2019-03-17T09:52:40.087Z,7.20
2019-03-17T09:55:07.164Z,7.30
2019-03-17T09:57:34.095Z,7.50
2019-03-17T10:00:00.952Z,7.60
2019-03-17T10:02:27.994Z,7.50
2019-03-17T10:04:54.882Z,7.50
2019-03-17T10:07:21.972Z,7.70
2019-03-17T10:09:48.781Z,7.70
2019-03-17T10:12:15.739Z,7.70
2019-03-17T10:14:42.595Z,7.70
2019-03-17T10:17:09.539Z,7.70
2019-03-17T10:19:36.597Z,7.60
2019-03-17T10:22:03.675Z,7.70
2019-03-17T10:24:30.496Z,7.90
2019-03-17T10:26:57.430Z,8.00
2019-03-17T10:29:24.642Z,8.00
2019-03-17T10:31:51.542Z,8.20
2019-03-17T10:34:18.356Z,8.30
2019-03-17T10:36:45.337Z,8.40
2019-03-17T10:39:12.856Z,8.50
2019-03-17T10:41:45.180Z,8.60
2019-03-17T10:44:19.655Z,8.90
2019-03-17T10:46:46.852Z,8.60
2019-03-17T10:49:13.778Z,8.70
2019-03-17T10:51:40.798Z,8.70
2019-03-17T10:54:07.665Z,8.60
2019-03-17T10:56:34.475Z,8.50
2019-03-17T10:59:01.323Z,8.50
2019-03-17T11:01:28.144Z,8.50
2019-03-17T11:03:54.974Z,8.50
2019-03-17T11:06:22.050Z,8.50
2019-03-17T11:08:48.887Z,8.50
2019-03-17T11:11:15.777Z,8.50
2019-03-17T11:13:42.638Z,8.40
2019-03-17T11:16:09.448Z,8.50
2019-03-17T11:18:36.271Z,8.50
2019-03-17T11:21:03.332Z,8.50
2019-03-17T11:23:30.180Z,8.60
2019-03-17T11:25:57.106Z,8.60
2019-03-17T11:28:23.945Z,8.50
2019-03-17T11:30:58.136Z,8.50
2019-03-17T11:33:25.189Z,8.40
2019-03-17T11:35:52.244Z,8.40
2019-03-17T11:38:19.180Z,8.10
2019-03-17T11:40:46.282Z,8.00
2019-03-17T11:43:13.475Z,7.90
2019-03-17T11:45:40.306Z,7.80
2019-03-17T11:48:07.358Z,7.80
2019-03-17T11:50:34.460Z,7.90
2019-03-17T11:53:01.402Z,7.70
2019-03-17T11:55:28.346Z,7.70
2019-03-17T11:57:55.411Z,7.70
2019-03-17T12:00:22.451Z,7.70
2019-03-17T12:02:49.494Z,7.80
2019-03-17T12:05:16.453Z,7.80
2019-03-17T12:07:43.433Z,8.00
2019-03-17T12:10:11.525Z,8.20
2019-03-17T12:12:38.578Z,8.40
2019-03-17T12:15:06.631Z,8.40
2019-03-17T12:17:34.750Z,8.40
2019-03-17T12:20:01.825Z,8.50
2019-03-17T12:22:28.825Z,8.40
2019-03-17T12:24:55.628Z,8.50
2019-03-17T12:27:22.690Z,8.40
2019-03-17T12:29:49.705Z,8.40
2019-03-17T12:32:16.550Z,8.50
2019-03-17T12:34:43.412Z,8.50
2019-03-17T12:37:10.230Z,8.50
2019-03-17T12:39:37.045Z,8.60
2019-03-17T12:42:03.912Z,8.60
2019-03-17T12:44:31.019Z,8.60
2019-03-17T12:46:57.842Z,8.60
2019-03-17T12:49:24.684Z,8.70
2019-03-17T12:51:51.483Z,8.60
2019-03-17T12:54:18.294Z,8.60
2019-03-17T12:56:45.363Z,8.50
2019-03-17T12:59:12.199Z,8.60
2019-03-17T13:01:39.127Z,8.50
2019-03-17T13:04:06.203Z,8.90
2019-03-17T13:06:33.219Z,9.20
2019-03-17T13:09:01.157Z,9.00
2019-03-17T13:11:28.261Z,9.20
2019-03-17T13:13:55.118Z,9.00
2019-03-17T13:16:22.026Z,8.80
2019-03-17T13:18:49.122Z,8.70
2019-03-17T13:21:15.962Z,8.70
2019-03-17T13:23:43.802Z,8.70
2019-03-17T13:26:10.753Z,8.60
2019-03-17T13:28:37.683Z,8.40
2019-03-17T13:31:04.607Z,8.60
2019-03-17T13:33:31.494Z,8.90
2019-03-17T13:35:59.420Z,9.00
2019-03-17T13:38:26.322Z,8.80
2019-03-17T13:40:53.195Z,8.60
2019-03-17T13:43:20.126Z,8.60
2019-03-17T13:45:47.038Z,8.60
2019-03-17T13:48:14.004Z,8.70
2019-03-17T13:50:40.819Z,8.70
2019-03-17T13:53:07.735Z,8.70
2019-03-17T13:55:34.594Z,8.50
2019-03-17T13:58:01.506Z,8.60
2019-03-17T14:00:28.452Z,8.60
2019-03-17T14:02:55.506Z,8.50
2019-03-17T14:05:22.551Z,8.20
2019-03-17T14:07:49.497Z,8.30
2019-03-17T14:10:16.608Z,8.40
2019-03-17T14:12:43.654Z,8.50
2019-03-17T14:15:11.523Z,8.50
2019-03-17T14:17:38.596Z,8.40
2019-03-17T14:20:07.091Z,8.30
2019-03-17T14:22:33.994Z,8.10
2019-03-17T14:25:01.007Z,7.90
2019-03-17T14:27:28.048Z,7.90
2019-03-17T14:29:54.846Z,8.00
2019-03-17T14:32:21.730Z,8.00
2019-03-17T14:34:48.762Z,7.80
2019-03-17T14:37:15.693Z,7.70
2019-03-17T14:39:42.679Z,7.60
2019-03-17T14:42:09.513Z,7.70
2019-03-17T14:44:36.325Z,7.50
2019-03-17T14:47:03.496Z,7.50
2019-03-17T14:49:30.315Z,7.40
2019-03-17T14:51:57.140Z,7.40
2019-03-17T14:54:24.075Z,7.40
2019-03-17T14:56:50.943Z,7.50
2019-03-17T14:59:17.771Z,7.40
2019-03-17T15:01:44.646Z,7.40
2019-03-17T15:04:11.652Z,7.40
2019-03-17T15:06:38.582Z,7.40
2019-03-17T15:09:07.170Z,7.40
2019-03-17T15:11:34.107Z,7.40
2019-03-17T15:14:00.920Z,7.40
2019-03-17T15:16:27.753Z,7.40
2019-03-17T15:18:54.674Z,7.30
2019-03-17T15:21:21.496Z,7.30
2019-03-17T15:23:48.472Z,7.30
2019-03-17T15:26:15.291Z,7.30
2019-03-17T15:28:42.112Z,7.30
2019-03-17T15:31:12.067Z,7.30
2019-03-17T15:33:37.826Z,7.30
2019-03-17T15:36:04.872Z,7.30
2019-03-17T15:38:31.702Z,7.30
2019-03-17T15:40:58.616Z,7.20
2019-03-17T15:43:25.546Z,7.20
2019-03-17T15:45:52.440Z,7.20
2019-03-17T15:48:19.259Z,7.30
2019-03-17T15:50:46.070Z,7.20
2019-03-17T15:53:13.061Z,7.10
2019-03-17T15:55:59.503Z,7.00
2019-03-17T15:58:26.484Z,7.00
2019-03-17T16:00:53.310Z,6.90
2019-03-17T16:03:20.232Z,6.90
2019-03-17T16:05:47.194Z,6.90
2019-03-17T16:08:14.007Z,6.80
2019-03-17T16:10:40.947Z,6.70
2019-03-17T16:13:07.826Z,6.60
2019-03-17T16:15:34.749Z,6.60
2019-03-17T16:18:01.663Z,6.70
2019-03-17T16:20:28.634Z,6.90
2019-03-17T16:22:55.682Z,6.80
2019-03-17T16:25:22.484Z,6.70
2019-03-17T16:27:49.490Z,6.60
2019-03-17T16:30:20.796Z,6.60
2019-03-17T16:32:47.947Z,6.60
2019-03-17T16:35:15.009Z,6.50
2019-03-17T16:37:41.974Z,6.40
2019-03-17T16:40:10.437Z,6.40
2019-03-17T16:42:37.299Z,6.40
2019-03-17T16:45:05.294Z,6.30
2019-03-17T16:47:32.953Z,6.20
2019-03-17T16:49:59.819Z,6.20
2019-03-17T16:52:26.636Z,6.20
2019-03-17T16:54:53.499Z,6.30
2019-03-17T16:57:20.446Z,6.20
2019-03-17T16:59:47.278Z,6.30
2019-03-17T17:02:14.109Z,6.30
2019-03-17T17:04:41.185Z,6.20
2019-03-17T17:07:08.115Z,6.20
2019-03-17T17:09:34.943Z,6.20
2019-03-17T17:12:02.138Z,6.20
2019-03-17T17:14:29.271Z,6.10
2019-03-17T17:16:56.106Z,6.10
2019-03-17T17:19:23.099Z,6.20
2019-03-17T17:21:50.134Z,6.20
2019-03-17T17:24:16.953Z,6.20
2019-03-17T17:26:44.152Z,6.20
2019-03-17T17:29:11.087Z,6.20
2019-03-17T17:31:38.274Z,6.20
2019-03-17T17:34:05.426Z,6.10
2019-03-17T17:36:32.240Z,6.10
2019-03-17T17:38:59.166Z,6.10
2019-03-17T17:41:26.026Z,6.10
2019-03-17T17:43:53.040Z,6.10
2019-03-17T17:46:20.089Z,6.10
2019-03-17T17:48:47.229Z,6.10
2019-03-17T17:51:14.229Z,6.10
2019-03-17T17:53:41.049Z,6.10
2019-03-17T17:56:07.901Z,6.10
2019-03-17T17:58:34.724Z,6.10
2019-03-17T18:01:01.551Z,6.10
2019-03-17T18:03:28.590Z,6.10
2019-03-17T18:05:55.609Z,6.00
2019-03-17T18:08:22.541Z,6.00
2019-03-17T18:10:49.474Z,5.90
2019-03-17T18:13:16.414Z,5.90
2019-03-17T18:15:43.410Z,5.90
2019-03-17T18:18:10.269Z,5.90
2019-03-17T18:20:37.199Z,6.00
2019-03-17T18:23:04.093Z,6.00
2019-03-17T18:25:30.966Z,6.00
2019-03-17T18:27:57.970Z,5.90
2019-03-17T18:30:24.886Z,5.90
2019-03-17T18:32:51.850Z,5.90
2019-03-17T18:35:18.810Z,5.90
2019-03-17T18:37:45.756Z,5.90
2019-03-17T18:40:13.110Z,5.90
2019-03-17T18:42:39.916Z,5.90
2019-03-17T18:45:08.209Z,5.90
2019-03-17T18:47:35.183Z,5.90
2019-03-17T18:50:02.166Z,5.80
2019-03-17T18:52:29.095Z,5.90
2019-03-17T18:54:55.938Z,5.80
2019-03-17T18:57:23.070Z,5.80
2019-03-17T18:59:50.143Z,5.80
2019-03-17T19:02:17.102Z,5.80
2019-03-17T19:04:44.110Z,5.80
2019-03-17T19:07:10.914Z,5.70
2019-03-17T19:09:37.779Z,5.80
2019-03-17T19:12:04.747Z,5.80
2019-03-17T19:14:31.533Z,5.70
2019-03-17T19:16:58.362Z,5.70
2019-03-17T19:19:25.322Z,5.70
2019-03-17T19:21:52.207Z,5.70
2019-03-17T19:24:19.134Z,5.70
2019-03-17T19:26:46.053Z,5.70
2019-03-17T19:29:12.858Z,5.70
2019-03-17T19:31:39.802Z,5.70
2019-03-17T19:34:06.707Z,5.70
2019-03-17T19:36:33.623Z,5.60
2019-03-17T19:39:00.449Z,5.60
2019-03-17T19:41:27.249Z,5.60
2019-03-17T19:43:54.052Z,5.60
2019-03-17T19:46:20.891Z,5.60
2019-03-17T19:48:47.794Z,5.60
2019-03-17T19:51:14.624Z,5.70
2019-03-17T19:53:41.449Z,5.70
2019-03-17T19:56:08.259Z,5.60
2019-03-17T19:58:35.220Z,5.60
2019-03-17T20:01:02.198Z,5.60
2019-03-17T20:03:29.142Z,5.60
2019-03-17T20:06:02.048Z,5.60
2019-03-17T20:08:24.933Z,5.60
2019-03-17T20:10:51.958Z,5.60
2019-03-17T20:13:18.737Z,5.60
2019-03-17T20:15:45.663Z,5.60
2019-03-17T20:18:12.669Z,5.50
2019-03-17T20:20:39.488Z,5.50
2019-03-17T20:23:06.338Z,5.50
2019-03-17T20:25:33.238Z,5.50
2019-03-17T20:28:00.171Z,5.50
2019-03-17T20:30:27.145Z,5.50
2019-03-17T20:32:54.304Z,5.50
2019-03-17T20:35:21.252Z,5.50
2019-03-17T20:37:48.224Z,5.50
2019-03-17T20:40:15.048Z,5.50
2019-03-17T20:42:42.041Z,5.50
2019-03-17T20:45:09.954Z,5.50
2019-03-17T20:47:36.885Z,5.50
2019-03-17T20:50:04.422Z,5.40
2019-03-17T20:52:31.245Z,5.40
2019-03-17T20:54:58.034Z,5.40
2019-03-17T20:57:24.843Z,5.40
2019-03-17T20:59:51.684Z,5.40
2019-03-17T21:02:18.504Z,5.40
2019-03-17T21:04:45.361Z,5.40
2019-03-17T21:07:12.298Z,5.40
2019-03-17T21:09:39.097Z,5.40
2019-03-17T21:12:06.006Z,5.40
2019-03-17T21:14:32.950Z,5.40
2019-03-17T21:16:59.753Z,5.30
2019-03-17T21:19:26.552Z,5.30
2019-03-17T21:21:53.402Z,5.30
2019-03-17T21:24:20.197Z,5.30
2019-03-17T21:26:47.134Z,5.30
2019-03-17T21:29:13.986Z,5.30
2019-03-17T21:31:40.790Z,5.30
2019-03-17T21:34:07.606Z,5.30
2019-03-17T21:36:34.445Z,5.30
2019-03-17T21:39:01.279Z,5.30
2019-03-17T21:41:28.074Z,5.30
2019-03-17T21:43:59.593Z,5.30
2019-03-17T21:46:23.650Z,5.30
2019-03-17T21:48:50.642Z,5.30
2019-03-17T21:51:17.526Z,5.40
2019-03-17T21:53:44.344Z,5.30
2019-03-17T21:56:11.472Z,5.40
2019-03-17T21:58:38.312Z,5.40
2019-03-17T22:01:05.268Z,5.40
2019-03-17T22:03:32.193Z,5.40
2019-03-17T22:05:59.206Z,5.40
2019-03-17T22:08:26.126Z,5.40
2019-03-17T22:10:53.070Z,5.40
2019-03-17T22:13:19.922Z,5.30
2019-03-17T22:15:46.834Z,5.30
2019-03-17T22:18:13.628Z,5.30
2019-03-17T22:20:40.697Z,5.30
2019-03-17T22:23:07.700Z,5.30
2019-03-17T22:25:34.697Z,5.30
2019-03-17T22:28:08.358Z,5.30
2019-03-17T22:30:30.382Z,5.20
2019-03-17T22:32:57.295Z,5.20
2019-03-17T22:35:24.344Z,5.10
2019-03-17T22:37:51.226Z,5.00
2019-03-17T22:40:18.389Z,5.00
2019-03-17T22:42:45.309Z,5.00
2019-03-17T22:45:12.432Z,5.00
2019-03-17T22:47:40.427Z,5.00
2019-03-17T22:50:26.898Z,5.00
2019-03-17T22:52:53.753Z,4.90
2019-03-17T22:55:20.671Z,4.90
2019-03-17T22:57:47.636Z,4.90
2019-03-17T23:00:15.563Z,5.00
2019-03-17T23:02:42.581Z,5.00
2019-03-17T23:05:09.648Z,5.00
2019-03-17T23:07:36.496Z,5.00
2019-03-17T23:10:04.033Z,4.90
2019-03-17T23:12:30.871Z,5.00
2019-03-17T23:14:57.714Z,5.00
2019-03-17T23:17:24.616Z,5.00
2019-03-17T23:19:51.773Z,5.10
2019-03-17T23:22:18.682Z,5.10
2019-03-17T23:24:45.507Z,5.10
2019-03-17T23:27:12.477Z,5.10
2019-03-17T23:29:39.301Z,5.10
2019-03-17T23:32:06.205Z,5.10
2019-03-17T23:34:33.038Z,5.10
2019-03-17T23:36:59.982Z,5.10
2019-03-17T23:39:26.969Z,5.00
2019-03-17T23:41:53.806Z,5.00
2019-03-17T23:44:20.617Z,5.10
2019-03-17T23:46:47.418Z,5.00
2019-03-17T23:49:14.268Z,5.10
2019-03-17T23:51:41.307Z,5.10
2019-03-17T23:54:08.129Z,5.10
2019-03-17T23:56:35.093Z,5.10
2019-03-17T23:59:02.025Z,5.10
